Time;durP1;ratioP1;P1;durP2;ratioP2;P2;SDS_P1;SDS_P2;PMS_P1;PMS_P2;Temp;Humidity;BMP_temperature;BMP_pressure;BME280_temperature;BME280_humidity;BME280_pressure;Samples;Min_cycle;Max_cycle;Signal;HPM_P1;HPM_P2
2023/10/01 00:00:15;;;;;;;8.23;5.28;;;15.50;99.90;;;;;;4978083;28;20034;-74
2023/10/01 00:02:41;;;;;;;7.45;5.30;;;15.40;99.90;;;;;;4994697;28;20018;-74
2023/10/01 00:05:09;;;;;;;7.38;4.97;;;15.30;99.90;;;;;;4995578;28;20038;-74
2023/10/01 00:07:37;;;;;;;6.20;4.85;;;15.20;99.90;;;;;;4978843;28;20547;-74
2023/10/01 00:10:10;;;;;;;8.90;4.72;;;15.20;99.90;;;;;;5010456;28;20146;-74
2023/10/01 00:12:54;;;;;;;7.05;4.97;;;15.20;99.90;;;;;;4997859;28;20038;-74
2023/10/01 00:15:23;;;;;;;6.30;4.85;;;15.20;99.90;;;;;;4996511;28;20743;-75
2023/10/01 00:17:49;;;;;;;8.23;6.20;;;15.20;99.90;;;;;;4993084;28;20503;-75
2023/10/01 00:22:46;;;;;;;10.10;5.75;;;15.00;99.90;;;;;;4996562;28;20034;-74
2023/10/01 00:25:13;;;;;;;7.15;5.20;;;14.90;99.90;;;;;;4996142;28;20052;-74
2023/10/01 00:27:39;;;;;;;6.35;4.95;;;14.90;99.90;;;;;;4995505;28;20396;-75
2023/10/01 00:30:09;;;;;;;8.82;5.45;;;14.90;99.90;;;;;;4977101;28;20029;-74
2023/10/01 00:32:40;;;;;;;8.40;5.15;;;14.90;99.90;;;;;;4979400;28;20040;-75
2023/10/01 00:35:07;;;;;;;5.88;4.28;;;14.90;99.90;;;;;;4995263;28;20030;-74
2023/10/01 00:37:34;;;;;;;6.38;4.78;;;14.90;99.90;;;;;;4993787;28;20033;-74
2023/10/01 00:40:05;;;;;;;6.75;4.97;;;15.00;99.90;;;;;;4980346;28;20053;-74
2023/10/01 00:42:36;;;;;;;7.30;5.28;;;15.00;99.90;;;;;;4997105;28;20052;-75
2023/10/01 00:45:03;;;;;;;7.25;5.10;;;15.00;99.90;;;;;;4994648;28;20041;-74
2023/10/01 00:47:31;;;;;;;7.25;5.32;;;15.10;99.90;;;;;;4992527;28;20049;-75
2023/10/01 00:50:00;;;;;;;6.65;5.00;;;15.10;99.90;;;;;;4994748;28;20030;-74
2023/10/01 00:52:28;;;;;;;5.63;4.65;;;15.10;99.90;;;;;;4995202;28;20396;-75
2023/10/01 00:54:55;;;;;;;8.23;5.25;;;15.00;99.90;;;;;;4979650;28;20998;-74
2023/10/01 00:57:22;;;;;;;8.77;4.93;;;15.00;99.90;;;;;;4992307;28;20413;-74
2023/10/01 00:59:50;;;;;;;7.05;5.90;;;15.00;99.90;;;;;;4994439;28;20473;-74
2023/10/01 01:02:18;;;;;;;7.10;5.95;;;14.90;99.90;;;;;;4961268;28;20038;-74
2023/10/01 01:04:59;;;;;;;6.13;4.90;;;14.90;99.90;;;;;;5011137;28;20032;-74
2023/10/01 01:07:25;;;;;;;7.65;5.47;;;14.80;99.90;;;;;;4994022;28;20049;-74
2023/10/01 01:09:52;;;;;;;7.68;4.93;;;14.70;99.90;;;;;;4996657;28;20038;-74
2023/10/01 01:12:18;;;;;;;6.10;4.72;;;14.70;99.90;;;;;;4979425;28;20042;-75
2023/10/01 01:14:44;;;;;;;7.35;5.30;;;14.60;99.90;;;;;;4953373;28;20037;-74
2023/10/01 01:17:11;;;;;;;7.65;4.93;;;14.50;99.90;;;;;;4996330;28;20033;-74
2023/10/01 01:19:38;;;;;;;7.72;5.75;;;14.40;99.90;;;;;;4999523;28;20045;-74
2023/10/01 01:22:09;;;;;;;7.50;5.40;;;14.40;99.90;;;;;;4999295;28;20968;-74
2023/10/01 01:24:36;;;;;;;8.00;5.90;;;14.30;99.90;;;;;;4997649;28;20034;-74
2023/10/01 01:27:06;;;;;;;6.90;4.97;;;14.30;99.90;;;;;;4996721;28;20040;-74
2023/10/01 01:29:40;;;;;;;6.88;5.00;;;14.30;99.90;;;;;;4981949;28;20029;-74
2023/10/01 01:32:13;;;;;;;6.15;4.93;;;14.30;99.90;;;;;;4998618;28;20053;-74
2023/10/01 01:34:40;;;;;;;;;;;14.30;99.90;;;;;;5000098;28;20034;-74
2023/10/01 01:37:08;;;;;;;5.55;4.47;;;14.30;99.90;;;;;;4982620;28;19913;-74
2023/10/01 01:39:54;;;;;;;6.43;4.78;;;14.30;99.90;;;;;;4984869;28;20049;-74
2023/10/01 01:42:24;;;;;;;7.43;5.30;;;14.30;99.90;;;;;;4983639;28;20033;-74
2023/10/01 01:47:38;;;;;;;7.22;5.15;;;14.40;99.90;;;;;;4980413;28;20041;-74
2023/10/01 01:50:18;;;;;;;6.57;5.25;;;14.40;99.90;;;;;;5000350;28;20048;-74
2023/10/01 01:52:51;;;;;;;6.07;5.13;;;14.40;99.90;;;;;;4981463;28;20034;-74
2023/10/01 01:55:28;;;;;;;5.50;4.68;;;14.40;99.90;;;;;;5013011;28;20042;-74
2023/10/01 01:58:11;;;;;;;6.28;4.65;;;14.40;99.90;;;;;;4979127;28;20039;-74
2023/10/01 02:00:42;;;;;;;6.97;5.38;;;14.30;99.90;;;;;;4983871;28;20038;-74
2023/10/01 02:03:17;;;;;;;7.47;5.47;;;14.30;99.90;;;;;;4997371;28;20034;-74
2023/10/01 02:05:47;;;;;;;7.68;5.80;;;14.30;99.90;;;;;;4998315;28;20574;-74
2023/10/01 02:08:23;;;;;;;7.28;5.47;;;14.40;99.90;;;;;;4989992;28;20396;-74
2023/10/01 02:10:52;;;;;;;7.10;5.28;;;14.40;99.90;;;;;;4981903;28;20034;-75
2023/10/01 02:13:18;;;;;;;8.77;4.75;;;14.50;99.90;;;;;;4995973;28;20038;-74
2023/10/01 02:15:45;;;;;;;7.18;5.03;;;14.50;99.90;;;;;;5015201;28;20045;-74
2023/10/01 02:18:16;;;;;;;8.20;4.97;;;14.50;99.90;;;;;;4998224;28;20030;-75
2023/10/01 02:20:52;;;;;;;6.13;4.90;;;14.50;99.90;;;;;;5000540;28;20387;-74
2023/10/01 02:23:26;;;;;;;6.72;4.70;;;14.60;99.90;;;;;;4981429;28;20121;-74
2023/10/01 02:26:00;;;;;;;6.05;3.90;;;14.60;99.90;;;;;;4995654;28;20033;-74
2023/10/01 02:28:27;;;;;;;7.25;4.07;;;14.60;99.90;;;;;;4996932;28;20038;-75
2023/10/01 02:31:00;;;;;;;5.73;4.50;;;14.70;99.90;;;;;;4983181;28;20038;-75
2023/10/01 02:33:55;;;;;;;6.18;4.88;;;14.70;99.90;;;;;;4979680;28;20307;-74
2023/10/01 02:36:22;;;;;;;5.13;3.67;;;14.70;99.90;;;;;;4996523;28;20594;-75
2023/10/01 02:38:53;;;;;;;6.88;4.20;;;14.80;99.90;;;;;;4982348;28;20038;-74
2023/10/01 02:41:25;;;;;;;5.65;3.58;;;14.80;99.90;;;;;;5012513;28;20041;-74
2023/10/01 02:43:52;;;;;;;5.63;3.72;;;14.90;99.90;;;;;;4981253;28;22498;-74
2023/10/01 02:46:29;;;;;;;5.18;3.58;;;14.90;99.90;;;;;;4995976;28;20037;-74
2023/10/01 02:48:59;;;;;;;6.00;3.85;;;14.90;99.90;;;;;;4981936;28;20041;-74
2023/10/01 02:51:38;;;;;;;6.88;3.72;;;14.90;99.90;;;;;;4981367;28;20046;-74
2023/10/01 02:54:11;;;;;;;9.05;4.53;;;15.00;99.90;;;;;;4979447;28;20037;-75
2023/10/01 02:56:52;;;;;;;6.90;3.28;;;15.00;99.90;;;;;;4982159;28;20038;-75
2023/10/01 02:59:23;;;;;;;6.60;4.13;;;15.00;99.90;;;;;;5012751;28;20030;-74
2023/10/01 03:01:49;;;;;;;5.75;3.75;;;15.00;99.90;;;;;;4989034;28;20469;-74
2023/10/01 03:04:17;;;;;;;7.82;5.13;;;15.00;99.90;;;;;;4994808;28;20033;-75
2023/10/01 03:06:55;;;;;;;7.75;4.40;;;15.00;99.90;;;;;;4997970;28;20029;-74
2023/10/01 03:09:31;;;;;;;9.20;4.90;;;15.00;99.90;;;;;;4964141;28;20043;-74
2023/10/01 03:15:00;;;;;;;7.47;3.88;;;15.00;99.90;;;;;;4996522;28;20030;-74
2023/10/01 03:17:33;;;;;;;5.82;3.50;;;15.00;99.90;;;;;;4996153;28;20045;-74
2023/10/01 03:20:12;;;;;;;6.15;4.18;;;15.00;99.90;;;;;;4980080;28;20041;-74
2023/10/01 03:22:39;;;;;;;6.72;3.45;;;15.00;99.90;;;;;;4995134;28;20026;-74
2023/10/01 03:25:14;;;;;;;7.38;3.70;;;15.00;99.90;;;;;;4980804;28;20053;-74
2023/10/01 03:27:40;;;;;;;5.75;3.85;;;15.00;99.90;;;;;;4997492;28;20030;-74
2023/10/01 03:30:21;;;;;;;5.95;3.13;;;15.00;99.90;;;;;;4979547;28;20041;-74
2023/10/01 03:32:48;;;;;;;5.32;3.10;;;15.00;99.90;;;;;;4982340;28;20049;-74
2023/10/01 03:35:14;;;;;;;6.82;2.80;;;15.00;99.90;;;;;;4981548;28;20029;-74
2023/10/01 03:37:43;;;;;;;5.10;2.80;;;15.00;99.90;;;;;;4980953;28;20521;-74
2023/10/01 03:40:18;;;;;;;4.20;2.28;;;15.00;99.90;;;;;;4949062;28;20034;-74
2023/10/01 03:42:50;;;;;;;6.85;3.00;;;15.00;99.90;;;;;;4995068;28;20033;-74
2023/10/01 03:48:00;;;;;;;6.80;3.42;;;15.00;99.90;;;;;;5011221;28;20034;-74
2023/10/01 03:50:31;;;;;;;4.93;2.78;;;15.00;99.90;;;;;;5013885;28;20041;-74
2023/10/01 03:52:59;;;;;;;9.20;4.40;;;15.00;99.90;;;;;;4994427;28;20038;-74
2023/10/01 03:55:26;;;;;;;7.03;3.53;;;15.00;99.90;;;;;;4979119;28;20034;-74
2023/10/01 03:58:06;;;;;;;4.70;2.58;;;15.10;99.90;;;;;;4996948;28;20029;-74
2023/10/01 04:03:14;;;;;;;6.10;3.20;;;15.10;99.90;;;;;;4995855;28;20033;-74
2023/10/01 04:05:44;;;;;;;6.47;3.10;;;15.10;99.90;;;;;;4995905;28;20038;-75
2023/10/01 04:08:14;;;;;;;7.35;3.15;;;15.10;99.90;;;;;;4980093;28;20037;-74
2023/10/01 04:10:41;;;;;;;5.82;2.83;;;15.20;99.90;;;;;;4982326;28;20487;-74
2023/10/01 04:13:20;;;;;;;7.97;2.75;;;15.20;99.90;;;;;;4996462;28;20041;-74
2023/10/01 04:15:55;;;;;;;8.38;3.58;;;15.20;99.90;;;;;;4991310;28;20513;-74
2023/10/01 04:18:23;;;;;;;5.50;2.92;;;15.20;99.90;;;;;;4997243;28;20038;-74
2023/10/01 04:23:40;;;;;;;6.20;3.00;;;15.20;99.90;;;;;;4977252;28;21333;-74
2023/10/01 04:26:08;;;;;;;6.10;3.17;;;15.30;99.90;;;;;;4996450;28;20037;-74
2023/10/01 04:28:37;;;;;;;5.45;3.05;;;15.20;99.90;;;;;;4995957;28;20041;-75
2023/10/01 04:31:09;;;;;;;7.50;3.05;;;15.30;99.90;;;;;;5008783;28;20038;-74
2023/10/01 04:33:36;;;;;;;6.15;2.40;;;15.30;99.90;;;;;;4979161;28;20606;-74
2023/10/01 04:36:10;;;;;;;8.63;3.88;;;15.30;99.90;;;;;;4979462;28;20037;-74
2023/10/01 04:38:38;;;;;;;8.98;3.50;;;15.30;99.90;;;;;;4976802;28;20041;-74
2023/10/01 04:41:07;;;;;;;5.78;3.08;;;15.30;99.90;;;;;;4978997;28;20416;-74
2023/10/01 04:43:41;;;;;;;6.25;2.72;;;15.30;99.90;;;;;;4963792;28;20046;-74
2023/10/01 04:46:11;;;;;;;7.97;3.33;;;15.30;99.90;;;;;;4994662;28;20038;-74
2023/10/01 04:48:39;;;;;;;5.97;2.92;;;15.30;99.90;;;;;;4979996;28;20441;-75
2023/10/01 04:51:09;;;;;;;8.05;3.50;;;15.40;99.90;;;;;;4996971;28;20508;-75
2023/10/01 04:53:35;;;;;;;5.38;2.83;;;15.40;99.90;;;;;;4994916;28;20479;-74
2023/10/01 04:56:05;;;;;;;8.18;3.45;;;15.40;99.90;;;;;;5019182;28;20029;-75
2023/10/01 04:58:36;;;;;;;7.53;2.78;;;15.40;99.90;;;;;;5004607;28;20037;-74
2023/10/01 05:01:07;;;;;;;4.57;2.08;;;15.40;99.90;;;;;;4986760;28;20428;-74
2023/10/01 05:03:38;;;;;;;6.65;3.10;;;15.30;99.90;;;;;;5001374;28;20034;-75
2023/10/01 05:06:09;;;;;;;7.77;2.80;;;15.30;99.90;;;;;;5000656;28;20492;-74
2023/10/01 05:08:39;;;;;;;6.90;3.30;;;15.40;99.90;;;;;;4985454;28;20792;-75
2023/10/01 05:11:11;;;;;;;7.55;3.33;;;15.30;99.90;;;;;;5018307;28;20056;-74
2023/10/01 05:13:41;;;;;;;;;;;15.40;99.90;;;;;;5003375;28;20057;-75
2023/10/01 05:16:12;;;;;;;7.72;3.50;;;15.30;99.90;;;;;;5000907;28;20430;-75
2023/10/01 05:18:40;;;;;;;5.72;2.78;;;15.40;99.90;;;;;;5000196;28;20049;-75
2023/10/01 05:21:12;;;;;;;4.72;2.88;;;15.40;99.90;;;;;;5002269;28;20044;-74
2023/10/01 05:23:39;;;;;;;4.72;2.20;;;15.40;99.90;;;;;;4987021;28;20110;-74
2023/10/01 05:26:10;;;;;;;5.45;2.47;;;15.30;99.90;;;;;;4969346;28;20036;-74
2023/10/01 05:28:40;;;;;;;6.22;2.45;;;15.30;99.90;;;;;;4999964;28;20026;-74
2023/10/01 05:31:09;;;;;;;5.38;2.33;;;15.40;99.90;;;;;;5016307;28;20037;-74
2023/10/01 05:33:35;;;;;;;5.82;2.17;;;15.40;99.90;;;;;;5000387;28;20049;-74
2023/10/01 05:36:05;;;;;;;5.38;3.08;;;15.40;99.90;;;;;;4982911;28;20046;-74
2023/10/01 05:38:36;;;;;;;5.53;2.75;;;15.40;99.90;;;;;;5017193;28;20114;-75
2023/10/01 05:41:15;;;;;;;6.32;3.00;;;15.40;99.90;;;;;;5002388;28;20049;-74
2023/10/01 05:43:50;;;;;;;7.35;3.05;;;15.40;99.90;;;;;;4985900;28;20026;-74
2023/10/01 05:46:22;;;;;;;6.20;2.80;;;15.40;99.90;;;;;;5000171;28;20045;-74
2023/10/01 05:48:55;;;;;;;;;;;15.40;99.90;;;;;;4987193;28;20403;-74
2023/10/01 05:51:30;;;;;;;7.28;3.65;;;15.50;99.90;;;;;;5017038;28;19924;-74
2023/10/01 05:53:59;;;;;;;6.90;2.80;;;15.40;99.90;;;;;;5001690;28;20495;-74
2023/10/01 05:56:36;;;;;;;7.35;2.63;;;15.40;99.90;;;;;;5001098;28;20400;-73
2023/10/01 05:59:03;;;;;;;7.15;2.95;;;15.40;99.90;;;;;;5001364;28;20041;-74
2023/10/01 06:01:33;;;;;;;5.75;2.88;;;15.50;99.90;;;;;;4999288;28;20038;-74
2023/10/01 06:04:00;;;;;;;6.95;2.80;;;15.50;99.90;;;;;;4965697;28;20042;-74
2023/10/01 06:06:27;;;;;;;7.03;3.35;;;15.50;99.90;;;;;;4999183;28;20041;-74
2023/10/01 06:09:00;;;;;;;5.88;3.22;;;15.50;99.90;;;;;;4965135;28;20145;-74
2023/10/01 06:11:38;;;;;;;6.40;3.78;;;15.50;99.90;;;;;;4999080;28;20030;-74
2023/10/01 06:14:06;;;;;;;7.78;3.65;;;15.60;99.90;;;;;;4998432;28;20044;-74
2023/10/01 06:16:37;;;;;;;8.07;3.17;;;15.60;99.90;;;;;;4999092;28;20379;-74
2023/10/01 06:19:11;;;;;;;9.07;3.78;;;15.60;99.90;;;;;;4997281;28;20492;-75
2023/10/01 06:21:39;;;;;;;7.15;3.22;;;15.70;99.90;;;;;;4998020;28;20033;-74
2023/10/01 06:24:10;;;;;;;5.97;3.33;;;15.70;99.90;;;;;;4998658;28;20037;-74
2023/10/01 06:26:36;;;;;;;7.25;2.92;;;15.80;99.90;;;;;;4982058;28;20397;-74
2023/10/01 06:29:05;;;;;;;9.48;4.30;;;15.80;99.90;;;;;;4965790;28;20400;-74
2023/10/01 06:31:47;;;;;;;5.78;3.38;;;15.90;99.90;;;;;;4995684;28;20346;-74
2023/10/01 06:34:21;;;;;;;7.15;3.78;;;15.90;99.90;;;;;;4994377;28;20034;-74
2023/10/01 06:36:57;;;;;;;9.70;4.25;;;16.00;99.90;;;;;;4998731;28;20596;-75
2023/10/01 06:39:35;;;;;;;7.22;3.65;;;16.00;99.90;;;;;;4978955;28;20515;-75
2023/10/01 06:42:18;;;;;;;6.53;3.13;;;16.00;99.90;;;;;;4998729;28;20041;-75
2023/10/01 06:44:52;;;;;;;10.00;3.50;;;16.10;99.90;;;;;;4979437;28;20500;-74
2023/10/01 06:47:23;;;;;;;6.40;3.42;;;16.20;99.90;;;;;;4994409;28;20045;-75
2023/10/01 06:49:57;;;;;;;6.82;3.30;;;16.20;99.90;;;;;;4995784;28;20026;-75
2023/10/01 06:52:28;;;;;;;6.07;3.00;;;16.30;99.90;;;;;;4995966;28;20524;-74
2023/10/01 06:54:57;;;;;;;6.72;3.20;;;16.40;99.90;;;;;;4992954;28;20472;-76
2023/10/01 06:57:27;;;;;;;6.13;3.00;;;16.40;99.90;;;;;;4980298;28;20030;-75
2023/10/01 06:59:57;;;;;;;9.13;3.72;;;16.50;99.90;;;;;;4981183;28;20493;-75
2023/10/01 07:02:27;;;;;;;6.90;4.10;;;16.60;99.90;;;;;;4980101;28;20034;-76
2023/10/01 07:04:58;;;;;;;6.85;3.75;;;16.60;99.90;;;;;;4965493;28;20037;-75
2023/10/01 07:07:26;;;;;;;6.78;2.90;;;16.60;99.90;;;;;;4979159;28;22313;-75
2023/10/01 07:10:00;;;;;;;7.80;4.20;;;16.70;99.90;;;;;;4992294;28;20408;-75
2023/10/01 07:12:27;;;;;;;9.35;4.35;;;16.70;99.90;;;;;;4978424;28;20033;-75
2023/10/01 07:14:53;;;;;;;9.43;5.50;;;16.80;99.90;;;;;;5009089;28;20046;-75
2023/10/01 07:17:24;;;;;;;8.55;4.57;;;16.90;99.90;;;;;;4978158;28;20452;-78
2023/10/01 07:20:18;;;;;;;10.32;4.35;;;16.90;99.90;;;;;;4963194;28;20049;-77
2023/10/01 07:22:45;;;;;;;11.35;4.72;;;16.90;99.90;;;;;;4978603;28;20038;-76
2023/10/01 07:27:56;;;;;;;10.45;5.10;;;16.90;99.90;;;;;;4994576;28;20030;-76
2023/10/01 07:30:39;;;;;;;11.43;5.22;;;16.90;99.90;;;;;;4993418;28;20026;-75
2023/10/01 07:33:06;;;;;;;8.88;4.75;;;17.00;99.90;;;;;;4996747;28;20044;-75
2023/10/01 07:35:39;;;;;;;11.05;5.30;;;17.00;99.90;;;;;;4996203;28;20393;-76
2023/10/01 07:38:06;;;;;;;11.80;5.47;;;17.10;99.90;;;;;;4995781;28;20036;-76
2023/10/01 07:40:50;;;;;;;11.05;6.97;;;17.20;99.90;;;;;;4981968;28;20053;-75
2023/10/01 07:43:18;;;;;;;9.50;5.22;;;17.30;99.90;;;;;;4996607;28;20033;-75
2023/10/01 07:45:55;;;;;;;12.50;5.65;;;17.40;99.90;;;;;;4963199;28;20475;-75
2023/10/01 07:48:23;;;;;;;10.25;4.47;;;17.40;99.90;;;;;;4979287;28;20488;-75
2023/10/01 07:50:53;;;;;;;13.13;5.38;;;17.50;99.90;;;;;;4995683;28;20041;-75
2023/10/01 07:53:20;;;;;;;10.57;5.90;;;17.60;99.90;;;;;;4995376;28;20396;-75
2023/10/01 07:55:49;;;;;;;9.73;4.82;;;17.60;99.90;;;;;;4995057;28;20026;-75
2023/10/01 07:58:25;;;;;;;9.02;4.80;;;17.70;99.90;;;;;;5012034;28;20034;-75
2023/10/01 08:00:59;;;;;;;9.95;4.20;;;17.80;99.90;;;;;;4995206;28;20034;-75
2023/10/01 08:06:10;;;;;;;8.57;4.45;;;17.90;99.90;;;;;;4995439;28;20058;-75
2023/10/01 08:08:47;;;;;;;8.30;4.07;;;18.00;99.90;;;;;;4978717;28;20304;-76
2023/10/01 08:12:05;;;;;;;8.73;4.57;;;18.00;99.90;;;;;;4979058;28;20477;-77
2023/10/01 08:14:05;;;;;;;10.20;5.15;;;18.10;99.90;;;;;;4963097;28;20045;-76
2023/10/01 08:16:43;;;;;;;9.90;4.90;;;18.20;99.90;;;;;;4996919;28;20876;-76
2023/10/01 08:19:11;;;;;;;10.20;4.78;;;18.20;99.90;;;;;;4979173;28;20033;-76
2023/10/01 08:21:37;;;;;;;8.80;4.78;;;18.30;99.90;;;;;;4996124;28;20029;-76
2023/10/01 08:24:13;;;;;;;10.40;5.85;;;18.40;99.90;;;;;;4996892;28;20397;-77
2023/10/01 08:26:43;;;;;;;9.90;5.40;;;18.50;99.90;;;;;;5009389;28;20022;-77
2023/10/01 08:29:14;;;;;;;15.95;7.28;;;18.60;99.90;;;;;;4994543;28;20072;-77
2023/10/01 08:34:24;;;;;;;8.93;4.57;;;18.80;99.90;;;;;;4979693;28;20042;-77
2023/10/01 08:36:55;;;;;;;8.23;4.88;;;18.90;99.90;;;;;;4978619;28;20033;-76
2023/10/01 08:40:13;;;;;;;11.63;5.53;;;19.00;99.90;;;;;;4996865;28;20041;-76
2023/10/01 08:42:09;;;;;;;15.85;7.53;;;19.00;99.90;;;;;;4982146;28;20049;-76
2023/10/01 08:44:49;;;;;;;12.23;6.57;;;19.10;99.90;;;;;;5009705;28;20887;-78
2023/10/01 08:52:52;;;;;;;12.75;7.53;;;19.30;99.90;;;;;;4995513;28;20385;-79
2023/10/01 08:55:27;;;;;;;10.38;6.38;;;19.40;99.90;;;;;;4995016;28;20376;-79
2023/10/01 08:57:53;;;;;;;10.63;5.30;;;19.50;99.90;;;;;;5011408;28;20045;-78
2023/10/01 09:00:24;;;;;;;14.10;6.50;;;19.60;99.90;;;;;;4979467;28;20496;-77
2023/10/01 09:02:55;;;;;;;14.95;7.30;;;19.80;99.90;;;;;;4980566;28;20397;-83
2023/10/01 09:05:26;;;;;;;11.82;5.90;;;19.90;99.90;;;;;;4996087;28;20037;-75
2023/10/01 09:10:53;;;;;;;15.05;7.20;;;20.10;99.90;;;;;;4996117;28;20516;-76
2023/10/01 09:13:21;;;;;;;11.80;6.70;;;20.20;99.90;;;;;;4962164;28;20037;-74
2023/10/01 09:15:54;;;;;;;10.95;5.50;;;20.30;99.90;;;;;;4992822;28;20038;-79
2023/10/01 09:18:25;;;;;;;10.45;5.30;;;20.30;99.90;;;;;;4993222;28;20835;-75
2023/10/01 09:23:56;;;;;;;9.05;5.55;;;20.50;99.90;;;;;;5010526;28;20520;-74
2023/10/01 09:26:40;;;;;;;12.90;6.43;;;20.60;99.90;;;;;;4961947;28;20473;-74
2023/10/01 09:29:21;;;;;;;9.60;5.20;;;20.70;99.90;;;;;;4990142;28;20412;-75
2023/10/01 09:31:57;;;;;;;12.85;7.38;;;20.80;99.90;;;;;;5007597;28;20450;-75
2023/10/01 09:34:31;;;;;;;14.52;6.72;;;20.80;99.90;;;;;;4994307;28;20050;-75
2023/10/01 09:37:01;;;;;;;12.20;6.45;;;20.90;99.90;;;;;;4993159;28;20550;-75
2023/10/01 09:39:38;;;;;;;10.18;5.35;;;21.00;99.90;;;;;;5013211;28;20037;-75
2023/10/01 09:42:22;;;;;;;11.20;5.93;;;21.10;99.90;;;;;;4995152;28;20030;-75
2023/10/01 09:44:53;;;;;;;14.77;7.78;;;21.20;99.90;;;;;;4994132;28;20389;-75
2023/10/01 09:47:27;;;;;;;10.90;6.20;;;21.30;99.90;;;;;;4996541;28;20057;-73
2023/10/01 09:49:59;;;;;;;12.65;6.25;;;21.40;99.90;;;;;;4982048;28;20037;-75
2023/10/01 09:52:30;;;;;;;12.27;6.78;;;21.50;99.90;;;;;;5011295;28;20515;-75
2023/10/01 09:55:10;;;;;;;10.27;5.93;;;21.60;99.90;;;;;;4997929;28;20332;-75
2023/10/01 09:57:39;;;;;;;11.32;5.57;;;21.70;99.90;;;;;;4997322;28;20045;-73
2023/10/01 10:00:17;;;;;;;12.13;6.85;;;21.80;99.90;;;;;;4994912;28;20041;-75
2023/10/01 10:02:51;;;;;;;10.90;5.65;;;22.00;99.90;;;;;;5013932;28;20045;-74
2023/10/01 10:05:26;;;;;;;11.27;6.45;;;22.30;99.90;;;;;;4982109;28;20046;-74
2023/10/01 10:08:15;;;;;;;11.00;6.00;;;22.60;99.90;;;;;;4980170;28;20025;-75
2023/10/01 10:10:48;;;;;;;10.70;5.30;;;23.00;99.90;;;;;;4997971;28;20049;-74
2023/10/01 10:13:37;;;;;;;9.00;5.00;;;23.50;99.90;;;;;;4984494;28;20042;-74
2023/10/01 10:19:20;;;;;;;13.35;6.18;;;24.40;99.90;;;;;;4976447;28;20038;-73
2023/10/01 10:22:05;;;;;;;13.30;6.80;;;24.80;99.90;;;;;;4962109;28;20046;-75
2023/10/01 10:24:46;;;;;;;9.10;5.18;;;25.20;99.90;;;;;;4975192;28;20042;-74
2023/10/01 10:27:24;;;;;;;9.32;5.28;;;25.60;99.90;;;;;;4959059;28;20114;-75
2023/10/01 10:29:57;;;;;;;10.13;5.85;;;26.00;99.90;;;;;;4962964;28;20034;-76
2023/10/01 10:32:30;;;;;;;13.57;6.30;;;26.20;99.90;;;;;;4962044;28;20053;-76
2023/10/01 10:35:06;;;;;;;10.75;5.97;;;26.40;99.90;;;;;;4941392;28;20513;-75
2023/10/01 10:37:37;;;;;;;10.77;5.95;;;26.80;99.90;;;;;;4945949;28;20038;-75
2023/10/01 10:43:04;;;;;;;8.68;5.35;;;27.50;99.90;;;;;;4976672;28;20046;-76
2023/10/01 10:45:42;;;;;;;12.25;6.65;;;27.70;99.90;;;;;;4946943;28;20038;-75
2023/10/01 10:48:10;;;;;;;11.25;6.55;;;27.80;99.90;;;;;;4961907;28;20080;-75
2023/10/01 10:50:53;;;;;;;10.35;6.38;;;27.60;99.90;;;;;;4964987;28;20033;-75
2023/10/01 10:53:24;;;;;;;14.30;7.25;;;27.40;99.90;;;;;;4988399;28;20038;-75
2023/10/01 10:56:00;;;;;;;11.23;6.82;;;27.10;99.90;;;;;;4996301;28;20038;-75
2023/10/01 10:58:31;;;;;;;10.95;6.47;;;26.80;99.90;;;;;;4994608;28;20045;-75
2023/10/01 11:01:15;;;;;;;12.60;7.45;;;26.50;99.90;;;;;;4996894;28;20500;-75
2023/10/01 11:03:51;;;;;;;10.95;6.88;;;26.50;99.90;;;;;;4981982;28;20385;-75
2023/10/01 11:06:22;;;;;;;12.32;7.05;;;26.40;99.90;;;;;;4981508;28;20049;-74
2023/10/01 11:08:50;;;;;;;9.80;6.00;;;26.40;99.90;;;;;;4982885;28;20049;-74
2023/10/01 11:11:39;;;;;;;10.52;6.13;;;26.50;99.90;;;;;;5011847;28;20038;-74
2023/10/01 11:14:12;;;;;;;10.80;5.50;;;26.70;99.90;;;;;;4996184;28;20497;-75
2023/10/01 11:16:44;;;;;;;10.20;5.90;;;26.90;99.90;;;;;;4963736;28;20034;-74
2023/10/01 11:19:14;;;;;;;;;;;26.90;99.90;;;;;;4996727;28;20022;-74
2023/10/01 11:21:46;;;;;;;9.93;6.43;;;26.90;99.90;;;;;;5013048;28;20364;-75
2023/10/01 11:24:13;;;;;;;12.40;6.95;;;26.70;99.90;;;;;;4997274;28;22492;-74
2023/10/01 11:27:20;;;;;;;11.20;7.18;;;26.30;99.90;;;;;;4980396;28;20038;-75
2023/10/01 11:30:13;;;;;;;11.85;7.40;;;25.90;99.90;;;;;;4979702;28;20488;-75
2023/10/01 11:35:33;;;;;;;10.15;6.43;;;25.20;99.90;;;;;;5012296;28;20033;-74
2023/10/01 11:38:14;;;;;;;9.50;5.57;;;25.00;99.90;;;;;;4979946;28;20512;-74
2023/10/01 11:43:36;;;;;;;11.52;6.90;;;25.00;99.90;;;;;;4994549;28;20499;-75
2023/10/01 11:46:29;;;;;;;10.20;5.18;;;25.70;99.90;;;;;;4995919;28;20045;-75
2023/10/01 11:49:17;;;;;;;10.80;6.82;;;26.60;99.90;;;;;;4996488;28;20030;-75
2023/10/01 11:51:50;;;;;;;10.10;6.25;;;27.60;99.90;;;;;;4997579;28;20038;-75
2023/10/01 11:54:19;;;;;;;10.82;6.40;;;28.40;99.90;;;;;;4995714;28;20041;-74
2023/10/01 11:57:05;;;;;;;10.55;6.30;;;29.30;99.80;;;;;;5012614;28;20034;-75
2023/10/01 11:59:35;;;;;;;9.02;5.53;;;30.00;98.80;;;;;;5010496;28;20048;-75
2023/10/01 12:04:56;;;;;;;11.60;6.55;;;31.10;97.40;;;;;;4995839;28;20050;-75
2023/10/01 12:07:40;;;;;;;9.32;5.85;;;31.70;96.20;;;;;;4980836;28;20048;-75
2023/10/01 12:10:24;;;;;;;11.93;6.85;;;31.70;94.80;;;;;;4977904;28;20034;-76
2023/10/01 12:12:51;;;;;;;11.35;6.65;;;31.80;94.00;;;;;;4996911;28;20030;-76
2023/10/01 12:15:40;;;;;;;8.73;5.30;;;32.10;93.50;;;;;;4994472;28;20064;-75
2023/10/01 12:18:08;;;;;;;9.30;5.88;;;32.50;93.20;;;;;;4995155;28;20041;-77
2023/10/01 12:20:39;;;;;;;8.52;5.65;;;33.00;92.50;;;;;;4995167;28;20042;-76
2023/10/01 12:23:12;;;;;;;;;;;33.20;91.70;;;;;;4964571;28;20042;-75
2023/10/01 12:28:18;;;;;;;9.38;6.35;;;33.50;90.90;;;;;;4978483;28;20049;-76
2023/10/01 12:30:47;;;;;;;8.02;5.78;;;33.20;90.40;;;;;;4994988;28;20038;-76
2023/10/01 12:33:14;;;;;;;9.82;6.32;;;32.40;90.30;;;;;;4994445;28;20045;-75
2023/10/01 12:35:41;;;;;;;10.10;6.25;;;32.30;90.50;;;;;;4995139;28;20042;-78
2023/10/01 12:40:49;;;;;;;9.57;5.50;;;32.80;89.00;;;;;;4980591;28;20033;-76
2023/10/01 12:46:00;;;;;;;9.05;5.70;;;33.80;87.50;;;;;;4997144;28;20405;-76
2023/10/01 12:48:27;;;;;;;9.95;6.28;;;34.10;86.20;;;;;;4996816;28;20029;-75
2023/10/01 12:51:00;;;;;;;9.88;5.85;;;34.50;85.00;;;;;;4982384;28;20034;-77
2023/10/01 12:53:49;;;;;;;8.15;5.55;;;34.80;83.50;;;;;;4995502;28;20034;-76
2023/10/01 12:56:43;;;;;;;9.82;5.38;;;35.00;81.70;;;;;;4978658;28;20473;-76
2023/10/01 12:59:18;;;;;;;6.22;4.97;;;34.90;80.70;;;;;;4994796;28;20038;-76
2023/10/01 13:01:51;;;;;;;6.65;4.68;;;34.80;80.00;;;;;;5011222;28;20052;-76
2023/10/01 13:04:22;;;;;;;6.82;4.85;;;35.00;79.70;;;;;;4994368;28;20472;-76
2023/10/01 13:06:50;;;;;;;7.90;5.10;;;35.10;79.00;;;;;;5010221;28;21871;-76
2023/10/01 13:09:53;;;;;;;7.97;5.28;;;35.30;77.90;;;;;;4980630;28;20511;-75
2023/10/01 13:12:25;;;;;;;8.27;5.38;;;34.40;77.70;;;;;;4995286;28;20033;-76
2023/10/01 13:17:43;;;;;;;8.90;4.70;;;31.70;80.70;;;;;;4995792;28;20045;-76
2023/10/01 13:20:22;;;;;;;10.10;5.65;;;30.70;82.90;;;;;;4999586;28;20037;-75
2023/10/01 13:22:51;;;;;;;8.18;4.97;;;29.90;84.20;;;;;;4975197;28;20073;-76
2023/10/01 13:25:24;;;;;;;7.40;4.90;;;29.20;85.40;;;;;;5001203;28;20392;-76
2023/10/01 13:28:07;;;;;;;6.95;4.63;;;28.70;86.80;;;;;;5000172;28;20037;-75
2023/10/01 13:33:25;;;;;;;8.20;5.03;;;27.80;89.30;;;;;;5001270;28;20038;-75
2023/10/01 13:35:58;;;;;;;8.18;5.20;;;27.30;90.20;;;;;;4996175;28;20042;-76
2023/10/01 14:08:43;;;;;;;8.38;4.82;;;25.60;93.70;;;;;;4999748;28;20045;-75
2023/10/01 14:11:11;;;;;;;6.97;4.18;;;25.50;93.90;;;;;;5002331;28;20026;-76
2023/10/01 14:13:41;;;;;;;9.40;5.38;;;25.50;94.10;;;;;;4999615;28;20290;-75
2023/10/01 14:16:12;;;;;;;8.73;5.57;;;25.40;94.30;;;;;;4996379;28;20034;-74
2023/10/01 14:18:39;;;;;;;9.35;5.32;;;25.40;94.60;;;;;;4966671;28;20030;-75
2023/10/01 14:21:15;;;;;;;11.60;5.82;;;25.30;94.70;;;;;;4980968;28;20029;-75
2023/10/01 14:23:44;;;;;;;9.13;5.70;;;25.20;94.80;;;;;;4981659;28;20508;-74
2023/10/01 14:26:10;;;;;;;10.73;6.18;;;25.20;94.80;;;;;;4998700;28;20026;-74
2023/10/01 14:28:45;;;;;;;9.75;6.07;;;25.20;95.00;;;;;;4998912;28;20029;-75
2023/10/01 14:31:12;;;;;;;9.35;5.90;;;25.10;95.10;;;;;;5012410;28;20034;-75
2023/10/01 14:33:42;;;;;;;9.18;5.47;;;25.10;95.20;;;;;;4966328;28;20038;-75
2023/10/01 14:36:14;;;;;;;9.00;5.32;;;25.00;95.20;;;;;;4985409;28;20405;-75
2023/10/01 14:38:41;;;;;;;;;;;24.90;95.30;;;;;;4984834;28;20033;-76
2023/10/01 14:41:15;;;;;;;10.00;5.68;;;24.80;95.50;;;;;;4989806;28;19916;-75
2023/10/01 14:43:53;;;;;;;10.85;6.40;;;24.70;95.70;;;;;;4999478;28;20038;-75
2023/10/01 14:46:21;;;;;;;9.23;5.85;;;24.60;95.80;;;;;;4995676;28;20389;-75